createdAt,value
2018-05-25T00:01:38.745Z,97609.88
2018-05-25T00:04:08.279Z,97618.06
2018-05-25T00:06:37.953Z,97626.55
2018-05-25T00:09:08.484Z,97621.83
2018-05-25T00:11:38.255Z,97610.06
2018-05-25T00:14:08.557Z,97617.81
2018-05-25T00:16:38.211Z,97608.49
2018-05-25T00:19:07.616Z,97606.15
2018-05-25T00:21:36.749Z,97606.70
2018-05-25T00:24:06.413Z,97604.11
2018-05-25T00:26:35.716Z,97611.86
2018-05-25T00:29:05.305Z,97611.86
2018-05-25T00:31:34.763Z,97613.83
2018-05-25T00:34:05.303Z,97606.48
2018-05-25T00:36:34.614Z,97607.29
2018-05-25T00:39:04.280Z,97601.48
2018-05-25T00:41:34.427Z,97597.09
2018-05-25T00:44:04.587Z,97600.09
2018-05-25T00:46:35.289Z,97599.28
2018-05-25T00:49:05.258Z,97598.88
2018-05-25T00:51:34.835Z,97591.13
2018-05-25T00:54:04.312Z,97600.27
2018-05-25T00:56:33.750Z,97581.29
2018-05-25T00:59:04.321Z,97605.83
2018-05-25T01:01:34.367Z,97610.40
2018-05-25T01:04:06.140Z,97599.63
2018-05-25T01:06:35.776Z,97607.22
2018-05-25T01:09:07.364Z,97600.27
2018-05-25T01:11:36.816Z,97597.67
2018-05-25T01:14:08.233Z,97598.08
2018-05-25T01:16:38.469Z,97595.45
2018-05-25T01:19:09.348Z,97593.66
2018-05-25T01:21:39.562Z,97602.00
2018-05-25T01:24:09.835Z,97599.63
2018-05-25T01:26:39.478Z,97600.61
2018-05-25T01:29:08.803Z,97601.19
2018-05-25T01:31:39.167Z,97606.56
2018-05-25T01:34:09.428Z,97609.13
2018-05-25T01:36:38.854Z,97609.93
2018-05-25T01:39:09.679Z,97599.80
2018-05-25T01:41:39.238Z,97594.83
2018-05-25T01:44:08.683Z,97588.84
2018-05-25T01:46:38.248Z,97599.00
2018-05-25T01:49:08.640Z,97594.00
2018-05-25T01:51:38.795Z,97597.17
2018-05-25T01:54:08.237Z,97593.59
2018-05-25T01:56:38.239Z,97597.36
2018-05-25T01:59:08.443Z,97594.77
2018-05-25T02:01:38.869Z,97594.40
2018-05-25T02:04:10.301Z,97590.23
2018-05-25T02:06:39.871Z,97590.81
2018-05-25T02:09:09.289Z,97583.47
2018-05-25T02:11:39.669Z,97591.22
2018-05-25T02:14:09.281Z,97588.22
2018-05-25T02:16:39.830Z,97585.84
2018-05-25T02:19:09.318Z,97585.26
2018-05-25T02:22:03.821Z,97576.13
2018-05-25T02:24:33.282Z,97580.88
2018-05-25T02:27:03.276Z,97585.99
2018-05-25T02:29:32.823Z,97587.81
2018-05-25T02:32:02.681Z,97583.06
2018-05-25T02:34:31.944Z,97582.66
2018-05-25T02:37:01.900Z,97577.66
2018-05-25T02:39:31.302Z,97580.88
2018-05-25T02:42:01.017Z,97576.70
2018-05-25T02:44:32.633Z,97576.05
2018-05-25T02:47:02.743Z,97573.67
2018-05-25T02:49:32.866Z,97577.26
2018-05-25T02:52:02.973Z,97571.63
2018-05-25T02:54:32.299Z,97571.48
2018-05-25T02:57:04.625Z,97569.11
2018-05-25T02:59:34.807Z,97570.50
2018-05-25T03:02:04.261Z,97569.11
2018-05-25T03:04:34.874Z,97570.90
2018-05-25T03:07:04.758Z,97563.15
2018-05-25T03:09:34.261Z,97570.25
2018-05-25T03:12:03.897Z,97550.72
2018-05-25T03:14:32.885Z,97569.69
2018-05-25T03:17:02.800Z,97573.86
2018-05-25T03:19:32.202Z,97575.00
2018-05-25T03:22:02.704Z,97575.80
2018-05-25T03:24:32.728Z,97572.41
2018-05-25T03:27:02.694Z,97580.95
2018-05-25T03:29:32.861Z,97580.55
2018-05-25T03:32:02.689Z,97582.93
2018-05-25T03:34:33.344Z,97574.19
2018-05-25T03:37:03.551Z,97575.73
2018-05-25T03:39:34.260Z,97572.41
2018-05-25T03:42:03.726Z,97580.73
2018-05-25T03:44:33.203Z,97573.79
2018-05-25T03:47:03.895Z,97577.13
2018-05-25T03:49:33.316Z,97584.66
2018-05-25T03:52:02.852Z,97593.23
2018-05-25T03:54:32.362Z,97590.46
2018-05-25T03:57:03.219Z,97587.03
2018-05-25T03:59:53.265Z,97585.23
2018-05-25T04:02:23.325Z,97585.39
2018-05-25T04:04:53.538Z,97586.63
2018-05-25T04:07:23.652Z,97583.05
2018-05-25T04:09:52.695Z,97587.21
2018-05-25T04:12:22.046Z,97584.83
2018-05-25T04:14:52.436Z,97581.07
2018-05-25T04:17:21.718Z,97585.45
2018-05-25T04:19:51.256Z,97590.61
2018-05-25T04:22:20.693Z,97588.23
2018-05-25T04:24:52.441Z,97587.43
2018-05-25T04:27:21.757Z,97581.47
2018-05-25T04:29:51.772Z,97587.43
2018-05-25T04:32:21.945Z,97573.54
2018-05-25T04:34:50.657Z,97584.50
2018-05-25T04:37:20.301Z,97582.45
2018-05-25T04:39:50.383Z,97583.66
2018-05-25T04:42:20.212Z,97585.89
2018-05-25T04:44:50.336Z,97586.70
2018-05-25T04:47:19.778Z,97583.52
2018-05-25T04:49:49.303Z,97584.72
2018-05-25T04:52:18.686Z,97577.19
2018-05-25T04:54:48.011Z,97581.61
2018-05-25T04:57:17.716Z,97583.22
2018-05-25T04:59:46.955Z,97586.83
2018-05-25T05:02:16.449Z,97586.83
2018-05-25T05:04:47.249Z,97589.20
2018-05-25T05:07:16.698Z,97591.22
2018-05-25T05:09:46.402Z,97591.62
2018-05-25T05:12:15.782Z,97587.45
2018-05-25T05:14:45.274Z,97578.16
2018-05-25T05:17:14.711Z,97577.58
2018-05-25T05:19:44.004Z,97582.95
2018-05-25T05:22:13.535Z,97581.16
2018-05-25T05:24:42.700Z,97580.58
2018-05-25T05:27:12.020Z,97570.30
2018-05-25T05:29:42.077Z,97578.70
2018-05-25T05:32:11.414Z,97577.71
2018-05-25T05:34:40.717Z,97578.92
2018-05-25T05:37:09.830Z,97581.55
2018-05-25T05:39:39.239Z,97584.33
2018-05-25T05:42:08.641Z,97587.72
2018-05-25T05:44:38.277Z,97585.20
2018-05-25T05:47:08.330Z,97586.00
2018-05-25T05:49:37.839Z,97584.20
2018-05-25T05:52:07.299Z,97586.41
2018-05-25T05:54:36.784Z,97591.22
2018-05-25T05:57:06.188Z,97588.62
2018-05-25T05:59:35.646Z,97589.83
2018-05-25T06:02:05.274Z,97586.25
2018-05-25T06:04:35.697Z,97586.00
2018-05-25T06:07:13.755Z,97595.79
2018-05-25T06:09:43.371Z,97597.58
2018-05-25T06:12:13.429Z,97599.04
2018-05-25T06:14:42.721Z,97608.21
2018-05-25T06:17:12.137Z,97609.42
2018-05-25T06:19:41.759Z,97611.46
2018-05-25T06:22:12.726Z,97609.23
2018-05-25T06:24:42.665Z,97601.55
2018-05-25T06:27:13.721Z,97605.56
2018-05-25T06:29:42.832Z,97609.16
2018-05-25T06:32:13.484Z,97602.54
2018-05-25T06:34:42.727Z,97608.75
2018-05-25T06:37:13.372Z,97597.83
2018-05-25T06:39:42.715Z,97607.52
2018-05-25T06:42:22.254Z,97605.72
2018-05-25T06:44:52.460Z,97602.94
2018-05-25T06:49:42.778Z,97606.13
2018-05-25T06:52:12.161Z,97609.48
2018-05-25T06:54:42.318Z,97602.94
2018-05-25T06:57:12.756Z,97606.13
2018-05-25T06:59:41.916Z,97601.80
2018-05-25T07:02:11.372Z,97603.01
2018-05-25T07:07:02.513Z,97601.17
2018-05-25T07:09:31.790Z,97597.72
2018-05-25T07:12:07.473Z,97602.94
2018-05-25T07:14:38.777Z,97595.59
2018-05-25T07:17:09.299Z,97595.41
2018-05-25T07:19:38.724Z,97587.13
2018-05-25T07:22:13.895Z,97587.60
2018-05-25T07:24:43.488Z,97595.27
2018-05-25T07:27:12.774Z,97593.20
2018-05-25T07:29:42.411Z,97592.55
2018-05-25T07:32:11.864Z,97581.11
2018-05-25T07:34:41.295Z,97582.81
2018-05-25T07:37:11.388Z,97588.97
2018-05-25T07:39:40.791Z,97585.36
2018-05-25T07:44:32.258Z,97589.25
2018-05-25T07:47:03.913Z,97590.58
2018-05-25T07:49:33.313Z,97587.39
2018-05-25T07:52:03.259Z,97581.50
2018-05-25T07:54:32.756Z,97586.14
2018-05-25T07:57:03.595Z,97581.91
2018-05-25T07:59:33.206Z,97586.39
2018-05-25T08:02:03.665Z,97582.31
2018-05-25T08:04:32.938Z,97583.86
2018-05-25T08:07:03.536Z,97586.88
2018-05-25T08:09:33.267Z,97580.84
2018-05-25T08:12:03.273Z,97575.81
2018-05-25T08:14:33.374Z,97577.85
2018-05-25T08:17:03.215Z,97568.86
2018-05-25T08:19:44.524Z,97579.33
2018-05-25T08:22:14.708Z,97580.91
2018-05-25T08:24:44.010Z,97580.97
2018-05-25T08:27:13.614Z,97582.09
2018-05-25T08:29:42.828Z,97583.77
2018-05-25T08:32:12.461Z,97588.09
2018-05-25T08:34:43.347Z,97585.04
2018-05-25T08:37:12.696Z,97587.63
2018-05-25T08:39:42.756Z,97585.75
2018-05-25T08:42:11.837Z,97583.84
2018-05-25T08:44:41.366Z,97580.72
2018-05-25T08:47:10.820Z,97582.27
2018-05-25T08:49:40.209Z,97588.08
2018-05-25T08:52:10.366Z,97587.67
2018-05-25T08:54:40.413Z,97591.26
2018-05-25T08:57:09.802Z,97583.78
2018-05-25T08:59:39.206Z,97583.05
2018-05-25T09:02:08.882Z,97577.73
2018-05-25T09:04:38.891Z,97582.95
2018-05-25T09:07:09.608Z,97575.57
2018-05-25T09:09:38.850Z,97575.76
2018-05-25T09:12:08.760Z,97581.38
2018-05-25T09:14:37.890Z,97582.19
2018-05-25T09:17:09.347Z,97586.76
2018-05-25T09:19:38.777Z,97582.12
2018-05-25T09:22:07.983Z,97580.17
2018-05-25T09:24:50.526Z,97583.83
2018-05-25T09:27:19.678Z,97579.47
2018-05-25T09:29:48.987Z,97580.52
2018-05-25T09:32:18.417Z,97568.00
2018-05-25T09:37:31.730Z,97569.64
2018-05-25T09:40:01.425Z,97571.09
2018-05-25T09:42:34.406Z,97571.50
2018-05-25T09:45:03.739Z,97569.77
2018-05-25T09:47:33.289Z,97574.34
2018-05-25T09:50:03.673Z,97572.36
2018-05-25T09:52:32.832Z,97571.97
2018-05-25T09:55:02.889Z,97566.98
2018-05-25T09:57:32.324Z,97561.23
2018-05-25T10:00:02.323Z,97565.34
2018-05-25T10:02:32.261Z,97568.31
2018-05-25T10:05:02.337Z,97568.06
2018-05-25T10:07:31.795Z,97568.94
2018-05-25T10:10:01.668Z,97562.97
2018-05-25T10:12:30.850Z,97563.95
2018-05-25T10:15:00.626Z,97559.14
2018-05-25T10:17:30.419Z,97560.93
2018-05-25T10:20:01.586Z,97563.31
2018-05-25T10:22:30.794Z,97555.37
2018-05-25T10:25:00.573Z,97562.91
2018-05-25T10:27:31.685Z,97559.72
2018-05-25T10:30:01.417Z,97556.70
2018-05-25T10:32:30.894Z,97557.41
2018-05-25T10:35:00.741Z,97556.14
2018-05-25T10:37:30.852Z,97551.72
2018-05-25T10:40:00.608Z,97554.91
2018-05-25T10:42:29.712Z,97557.13
2018-05-25T10:44:59.311Z,97561.05
2018-05-25T10:47:29.241Z,97556.30
2018-05-25T10:49:58.782Z,97557.22
2018-05-25T10:52:28.205Z,97551.91
2018-05-25T10:54:58.340Z,97555.83
2018-05-25T10:57:28.515Z,97556.41
2018-05-25T10:59:57.788Z,97554.63
2018-05-25T11:02:26.984Z,97552.00
2018-05-25T11:04:56.408Z,97553.39
2018-05-25T11:07:25.819Z,97549.06
2018-05-25T11:09:55.379Z,97552.89
2018-05-25T11:12:25.537Z,97555.55
2018-05-25T11:15:20.249Z,97553.23
2018-05-25T11:17:49.792Z,97550.11
2018-05-25T11:20:22.772Z,97549.06
2018-05-25T11:22:51.946Z,97553.23
2018-05-25T11:25:20.681Z,97556.36
2018-05-25T11:27:50.722Z,97550.58
2018-05-25T11:30:23.355Z,97538.80
2018-05-25T11:32:52.620Z,97546.34
2018-05-25T11:35:21.753Z,97546.34
2018-05-25T11:40:34.678Z,97537.69
2018-05-25T11:43:05.431Z,97540.31
2018-05-25T11:45:34.639Z,97543.50
2018-05-25T11:48:03.820Z,97540.25
2018-05-25T11:50:33.199Z,97538.86
2018-05-25T11:53:02.804Z,97534.30
2018-05-25T11:55:32.232Z,97539.42
2018-05-25T11:58:02.225Z,97531.66
2018-05-25T12:00:31.777Z,97527.68
2018-05-25T12:03:01.412Z,97523.51
2018-05-25T12:05:30.697Z,97526.44
2018-05-25T12:08:01.391Z,97517.55
2018-05-25T12:10:30.780Z,97519.68
2018-05-25T12:12:59.956Z,97515.10
2018-05-25T12:15:29.327Z,97522.45
2018-05-25T12:17:58.701Z,97524.44
2018-05-25T12:20:27.790Z,97520.82
2018-05-25T12:22:57.203Z,97514.05
2018-05-25T12:25:26.484Z,97515.84
2018-05-25T12:27:55.732Z,97509.14
2018-05-25T12:30:24.804Z,97516.49
2018-05-25T12:32:54.127Z,97510.53
2018-05-25T12:35:23.433Z,97511.33
2018-05-25T12:37:53.636Z,97510.94
2018-05-25T12:40:23.214Z,97508.55
2018-05-25T12:42:52.641Z,97502.99
2018-05-25T12:45:21.855Z,97500.37
2018-05-25T12:47:51.190Z,97500.95
2018-05-25T12:50:24.438Z,97497.77
2018-05-25T12:52:56.634Z,97489.43
2018-05-25T12:55:25.922Z,97487.30
2018-05-25T12:57:54.646Z,97486.31
2018-05-25T13:00:23.800Z,97489.16
2018-05-25T13:02:53.792Z,97486.37
2018-05-25T13:05:23.265Z,97481.61
2018-05-25T13:07:52.654Z,97478.30
2018-05-25T13:10:23.677Z,97481.55
2018-05-25T13:12:52.735Z,97479.26
2018-05-25T13:15:21.995Z,97478.73
2018-05-25T13:17:52.443Z,97482.97
2018-05-25T13:20:24.715Z,97480.05
2018-05-25T13:22:56.463Z,97481.29
2018-05-25T13:25:26.492Z,97478.66
2018-05-25T13:27:56.310Z,97470.32
2018-05-25T13:30:25.706Z,97470.91
2018-05-25T13:32:54.810Z,97469.86
2018-05-25T13:35:24.084Z,97466.95
2018-05-25T13:37:53.363Z,97468.66
2018-05-25T13:40:23.764Z,97469.21
2018-05-25T13:42:52.986Z,97471.84
2018-05-25T13:45:22.304Z,97467.82
2018-05-25T13:47:52.449Z,97467.82
2018-05-25T13:50:23.492Z,97470.84
2018-05-25T13:52:52.717Z,97465.29
2018-05-25T13:55:21.830Z,97459.91
2018-05-25T13:57:51.224Z,97459.54
2018-05-25T14:00:21.427Z,97458.98
2018-05-25T14:02:50.754Z,97462.32
2018-05-25T14:05:21.819Z,97465.34
2018-05-25T14:07:50.938Z,97455.67
2018-05-25T14:10:23.671Z,97457.18
2018-05-25T14:12:52.793Z,97447.50
2018-05-25T14:15:21.881Z,97445.92
2018-05-25T14:17:51.195Z,97439.80
2018-05-25T14:20:23.673Z,97443.73
2018-05-25T14:22:52.818Z,97442.53
2018-05-25T14:25:21.963Z,97442.69
2018-05-25T14:27:51.315Z,97441.14
2018-05-25T14:30:23.268Z,97432.42
2018-05-25T14:32:52.583Z,97435.20
2018-05-25T14:35:21.745Z,97437.02
2018-05-25T14:37:50.932Z,97430.75
2018-05-25T14:40:22.674Z,97426.45
2018-05-25T14:42:51.763Z,97431.46
2018-05-25T14:47:36.724Z,97431.03
2018-05-25T14:50:06.370Z,97428.68
2018-05-25T14:52:36.619Z,97430.47
2018-05-25T14:55:05.800Z,97432.42
2018-05-25T14:57:35.232Z,97436.59
2018-05-25T15:00:04.766Z,97436.25
2018-05-25T15:02:34.256Z,97440.48
2018-05-25T15:05:05.292Z,97437.36
2018-05-25T15:07:34.737Z,97435.80
2018-05-25T15:10:07.471Z,97432.48
2018-05-25T15:12:36.933Z,97435.43
2018-05-25T15:15:05.598Z,97439.61
2018-05-25T15:17:35.300Z,97427.29
2018-05-25T15:20:05.293Z,97436.02
2018-05-25T15:22:34.642Z,97429.70
2018-05-25T15:25:04.456Z,97441.19
2018-05-25T15:27:33.876Z,97441.98
2018-05-25T15:30:03.585Z,97438.00
2018-05-25T15:32:32.875Z,97444.16
2018-05-25T15:35:03.726Z,97438.16
2018-05-25T15:37:33.292Z,97438.75
2018-05-25T15:40:07.058Z,97439.48
2018-05-25T15:42:36.849Z,97440.87
2018-05-25T15:45:10.614Z,97438.81
2018-05-25T15:47:39.746Z,97436.49
2018-05-25T15:50:09.263Z,97435.75
2018-05-25T15:52:38.565Z,97438.53
2018-05-25T15:55:07.817Z,97440.72
2018-05-25T15:57:37.002Z,97444.49
2018-05-25T16:00:06.516Z,97446.45
2018-05-25T16:02:35.727Z,97433.47
2018-05-25T16:05:04.840Z,97434.05
2018-05-25T16:07:34.259Z,97435.79
2018-05-25T16:10:03.530Z,97431.46
2018-05-25T16:12:32.863Z,97430.81
2018-05-25T16:15:02.673Z,97433.35
2018-05-25T16:17:32.266Z,97432.95
2018-05-25T16:20:02.442Z,97434.53
2018-05-25T16:22:32.561Z,97438.86
2018-05-25T16:25:03.218Z,97431.69
2018-05-25T16:27:33.901Z,97434.68
2018-05-25T16:30:04.007Z,97432.67
2018-05-25T16:32:33.652Z,97446.05
2018-05-25T16:35:22.329Z,97446.80
2018-05-25T16:37:51.762Z,97445.99
2018-05-25T16:40:23.655Z,97447.58
2018-05-25T16:42:53.383Z,97457.71
2018-05-25T16:45:23.553Z,97459.66
2018-05-25T16:47:52.676Z,97454.09
2018-05-25T16:50:22.354Z,97460.59
2018-05-25T16:52:51.613Z,97455.91
2018-05-25T16:55:38.348Z,97460.30
2018-05-25T16:58:08.993Z,97461.00
2018-05-25T17:00:39.268Z,97465.77
2018-05-25T17:03:09.464Z,97458.96
2018-05-25T17:05:41.170Z,97462.52
2018-05-25T17:08:10.728Z,97460.73
2018-05-25T17:10:40.047Z,97462.67
2018-05-25T17:13:09.452Z,97465.05
2018-05-25T17:15:38.957Z,97464.13
2018-05-25T17:18:08.350Z,97470.15
2018-05-25T17:22:14.857Z,97475.25
2018-05-25T17:24:44.843Z,97474.27
2018-05-25T17:27:15.324Z,97479.83
2018-05-25T17:34:36.450Z,97487.48
2018-05-25T17:37:05.707Z,97484.70
2018-05-25T17:39:35.284Z,97483.56
2018-05-25T17:42:04.666Z,97488.19
2018-05-25T17:44:35.773Z,97493.17
2018-05-25T17:47:09.678Z,97499.78
2018-05-25T17:49:40.495Z,97498.79
2018-05-25T17:52:09.763Z,97495.67
2018-05-25T17:56:15.690Z,97493.34
2018-05-25T17:59:20.731Z,97497.52
2018-05-25T18:01:51.594Z,97500.30
2018-05-25T18:04:22.037Z,97495.72
2018-05-25T18:06:52.740Z,97504.72
2018-05-25T18:10:11.794Z,97509.11
2018-05-25T18:12:41.327Z,97507.56
2018-05-25T18:15:12.062Z,97502.15
2018-05-25T18:17:41.757Z,97510.75
2018-05-25T18:20:22.483Z,97519.55
2018-05-25T18:22:51.841Z,97519.36
2018-05-25T18:25:22.001Z,97520.75
2018-05-25T18:27:51.580Z,97516.48
2018-05-25T18:30:22.321Z,97528.66
2018-05-25T18:32:52.679Z,97528.08
2018-05-25T18:35:21.989Z,97531.56
2018-05-25T18:37:51.739Z,97530.79
2018-05-25T18:40:22.740Z,97538.15
2018-05-25T18:42:52.283Z,97542.17
2018-05-25T18:45:22.140Z,97544.70
2018-05-25T18:47:55.449Z,97540.94
2018-05-25T18:50:24.956Z,97547.48
2018-05-25T18:52:54.363Z,97557.63
2018-05-25T18:55:24.681Z,97559.02
2018-05-25T18:59:48.534Z,97561.59
2018-05-25T19:02:18.688Z,97559.16
2018-05-25T19:04:47.793Z,97580.48
2018-05-25T19:07:17.618Z,97587.31
2018-05-25T19:09:49.271Z,97591.33
2018-05-25T19:13:20.791Z,97599.38
2018-05-25T19:15:52.414Z,97602.31
2018-05-25T19:18:24.512Z,97608.19
2018-05-25T19:20:54.703Z,97604.94
2018-05-25T19:23:24.177Z,97607.78
2018-05-25T19:27:26.729Z,97613.70
2018-05-25T19:29:56.265Z,97618.30
2018-05-25T19:32:25.840Z,97623.68
2018-05-25T19:34:55.858Z,97630.23
2018-05-25T19:37:26.429Z,97625.02
2018-05-25T19:39:56.321Z,97626.53
2018-05-25T19:42:27.285Z,97640.19
2018-05-25T19:48:55.680Z,97650.46
2018-05-25T19:51:27.366Z,97659.21
2018-05-25T19:54:00.848Z,97653.89
2018-05-25T19:56:33.788Z,97667.96
2018-05-25T19:59:05.214Z,97666.08
2018-05-25T20:01:36.462Z,97662.55
2018-05-25T20:04:08.698Z,97662.30
2018-05-25T20:06:39.653Z,97665.09
2018-05-25T20:09:10.974Z,97621.67
2018-05-25T20:12:11.894Z,97662.00
2018-05-25T20:14:42.066Z,97658.28
2018-05-25T20:19:49.750Z,97661.07
2018-05-25T20:22:19.663Z,97669.42
2018-05-25T20:24:49.603Z,97672.79
2018-05-25T20:27:18.903Z,97674.34
2018-05-25T20:29:48.359Z,97679.16
2018-05-25T20:32:19.989Z,97673.81
2018-05-25T20:34:50.520Z,97682.81
2018-05-25T20:37:20.337Z,97681.66
2018-05-25T20:39:50.630Z,97685.25
2018-05-25T20:42:22.000Z,97683.39
2018-05-25T20:44:52.654Z,97681.02
2018-05-25T20:47:22.846Z,97679.38
2018-05-25T20:51:26.488Z,97680.21
2018-05-25T20:53:57.009Z,97679.56
2018-05-25T20:56:26.381Z,97683.34
2018-05-25T20:58:56.013Z,97680.70
2018-05-25T21:01:25.615Z,97684.54
2018-05-25T21:03:54.791Z,97689.30
2018-05-25T21:06:24.639Z,97689.70
2018-05-25T21:08:57.325Z,97688.31
2018-05-25T21:11:30.460Z,97689.05
2018-05-25T21:14:00.833Z,97680.55
2018-05-25T21:16:30.882Z,97687.11
2018-05-25T21:19:01.024Z,97688.91
2018-05-25T21:21:32.202Z,97689.89
2018-05-25T21:24:02.738Z,97697.25
2018-05-25T21:26:32.474Z,97693.08
2018-05-25T21:29:02.844Z,97693.88
2018-05-25T21:31:32.486Z,97690.11
2018-05-25T21:34:03.339Z,97698.70
2018-05-25T21:36:36.450Z,97699.76
2018-05-25T21:39:09.194Z,97698.98
2018-05-25T21:41:41.299Z,97701.83
2018-05-25T21:44:11.674Z,97701.68
2018-05-25T21:46:41.548Z,97703.28
2018-05-25T21:49:11.710Z,97699.11
2018-05-25T21:51:42.713Z,97699.05
2018-05-25T21:54:12.136Z,97693.94
2018-05-25T21:56:41.671Z,97704.80
2018-05-25T21:59:11.903Z,97709.23
2018-05-25T22:01:41.536Z,97709.23
2018-05-25T22:04:12.165Z,97708.64
2018-05-25T22:06:42.508Z,97713.89
2018-05-25T22:09:13.019Z,97715.53
2018-05-25T22:11:43.377Z,97708.11
2018-05-25T22:14:13.677Z,97709.16
2018-05-25T22:16:43.921Z,97712.10
2018-05-25T22:19:12.876Z,97704.27
2018-05-25T22:21:43.057Z,97704.61
2018-05-25T22:24:12.749Z,97710.52
2018-05-25T22:29:43.683Z,97714.38
2018-05-25T22:32:13.774Z,97713.48
2018-05-25T22:34:43.541Z,97713.89
2018-05-25T22:37:12.870Z,97719.23
2018-05-25T22:39:42.495Z,97715.40
2018-05-25T22:42:10.873Z,97710.42
2018-05-25T22:44:58.673Z,97716.14
2018-05-25T22:56:59.786Z,97707.04
2018-05-25T22:59:35.495Z,97710.75
2018-05-25T23:02:04.877Z,97717.27
2018-05-25T23:04:34.487Z,97721.63
2018-05-25T23:07:03.719Z,97697.80
2018-05-25T23:09:33.809Z,97715.27
2018-05-25T23:12:03.593Z,97711.64
2018-05-25T23:14:32.789Z,97714.61
2018-05-25T23:17:02.630Z,97713.41
2018-05-25T23:19:32.350Z,97714.95
2018-05-25T23:22:02.285Z,97712.16
2018-05-25T23:24:32.443Z,97714.14
2018-05-25T23:27:02.317Z,97713.34
2018-05-25T23:29:32.445Z,97717.52
2018-05-25T23:32:03.447Z,97721.25
2018-05-25T23:34:32.817Z,97718.66
2018-05-25T23:37:02.776Z,97719.23
2018-05-25T23:39:32.792Z,97722.83
2018-05-25T23:45:03.727Z,97717.94
2018-05-25T23:47:41.419Z,97719.77
2018-05-25T23:50:11.820Z,97716.14
2018-05-25T23:52:41.426Z,97709.96
2018-05-25T23:55:13.765Z,97709.52
2018-05-25T23:57:44.446Z,97708.97
